createdAt,value
2022-11-18T00:00:26.428Z,11
2022-11-18T00:01:26.745Z,11.14
2022-11-18T00:02:26.638Z,11.02
2022-11-18T00:03:26.479Z,11.08
2022-11-18T00:04:26.826Z,11.08
2022-11-18T00:05:26.504Z,11.12
2022-11-18T00:06:26.789Z,11.04
2022-11-18T00:07:27.039Z,11.05
2022-11-18T00:08:26.555Z,11.05
2022-11-18T00:09:26.832Z,11.1
2022-11-18T00:10:26.593Z,11.04
2022-11-18T00:11:26.861Z,10.97
2022-11-18T00:12:26.623Z,11.07
2022-11-18T00:13:26.635Z,11.12
2022-11-18T00:14:26.652Z,11.1
2022-11-18T00:15:34.228Z,11.1
2022-11-18T00:16:26.966Z,11.04
2022-11-18T00:17:26.706Z,11.12
2022-11-18T00:18:27.478Z,11
2022-11-18T00:19:26.993Z,11.05
2022-11-18T00:20:27.089Z,11.05
2022-11-18T00:21:27.029Z,11.04
2022-11-18T00:22:33.304Z,11.07
2022-11-18T00:23:27.099Z,11.14
2022-11-18T00:24:27.081Z,11.07
2022-11-18T00:25:26.831Z,11.12
2022-11-18T00:26:27.104Z,11.08
2022-11-18T00:27:27.144Z,11.1
2022-11-18T00:28:26.880Z,11.11
2022-11-18T00:29:27.184Z,11
2022-11-18T00:30:27.176Z,11.05
2022-11-18T00:31:26.934Z,10.99
2022-11-18T00:32:26.696Z,11.02
2022-11-18T00:33:26.972Z,11.02
2022-11-18T00:34:26.978Z,11.05
2022-11-18T00:35:27.001Z,11.04
2022-11-18T00:36:27.319Z,11.04
2022-11-18T00:37:27.293Z,11.05
2022-11-18T00:38:27.307Z,11.07
2022-11-18T00:39:27.395Z,11
2022-11-18T00:40:27.346Z,11.02
2022-11-18T00:41:27.355Z,11
2022-11-18T00:42:27.394Z,11.07
2022-11-18T00:43:27.390Z,11.04
2022-11-18T00:44:27.405Z,11.04
2022-11-18T00:45:27.438Z,11
2022-11-18T00:46:27.435Z,10.96
2022-11-18T00:47:27.199Z,11.04
2022-11-18T00:48:27.466Z,11.08
2022-11-18T00:49:27.241Z,11.02
2022-11-18T00:50:27.250Z,10.99
2022-11-18T00:51:27.528Z,11.02
2022-11-18T00:52:27.592Z,11
2022-11-18T00:53:27.290Z,11.04
2022-11-18T00:54:27.572Z,11.04
2022-11-18T00:55:27.345Z,11.07
2022-11-18T00:56:27.079Z,11.1
2022-11-18T00:57:27.358Z,11
2022-11-18T00:58:27.374Z,11
2022-11-18T00:59:27.397Z,10.99
2022-11-18T01:00:27.675Z,11.04
2022-11-18T01:01:27.967Z,11.04
2022-11-18T01:02:27.812Z,10.97
2022-11-18T01:03:27.457Z,11.02
2022-11-18T01:04:27.740Z,11
2022-11-18T01:05:27.516Z,11.05
2022-11-18T01:06:27.768Z,11.04
2022-11-18T01:07:27.767Z,11.05
2022-11-18T01:08:27.865Z,10.97
2022-11-18T01:09:27.827Z,10.99
2022-11-18T01:10:27.580Z,10.99
2022-11-18T01:11:27.613Z,10.99
2022-11-18T01:12:27.616Z,11.02
2022-11-18T01:13:27.960Z,10.99
2022-11-18T01:14:27.649Z,10.99
2022-11-18T01:15:27.920Z,10.94
2022-11-18T01:16:27.672Z,11.08
2022-11-18T01:17:27.944Z,10.94
2022-11-18T01:18:27.986Z,10.99
2022-11-18T01:19:27.983Z,11
2022-11-18T01:20:27.749Z,10.99
2022-11-18T01:21:27.778Z,10.99
2022-11-18T01:22:28.026Z,10.97
2022-11-18T01:23:27.522Z,10.96
2022-11-18T01:24:28.136Z,10.97
2022-11-18T01:25:27.822Z,10.97
2022-11-18T01:26:27.576Z,10.96
2022-11-18T01:27:28.189Z,10.94
2022-11-18T01:28:28.894Z,11
2022-11-18T01:29:27.885Z,11
2022-11-18T01:30:28.173Z,10.97
2022-11-18T01:31:27.921Z,10.99
2022-11-18T01:32:30.346Z,10.94
2022-11-18T01:33:27.947Z,11
2022-11-18T01:34:27.969Z,11.02
2022-11-18T01:35:28.245Z,10.97
2022-11-18T01:36:28.280Z,10.93
2022-11-18T01:37:27.760Z,10.96
2022-11-18T01:38:28.041Z,10.99
2022-11-18T01:39:28.343Z,11.04
2022-11-18T01:40:28.393Z,11
2022-11-18T01:41:28.340Z,11.04
2022-11-18T01:42:28.363Z,11
2022-11-18T01:43:28.451Z,10.93
2022-11-18T01:44:28.138Z,11
2022-11-18T01:45:28.415Z,10.97
2022-11-18T01:46:28.425Z,11.04
2022-11-18T01:47:28.196Z,10.99
2022-11-18T01:48:28.223Z,11.04
2022-11-18T01:49:28.553Z,10.93
2022-11-18T01:50:28.259Z,10.94
2022-11-18T01:51:28.503Z,11.08
2022-11-18T01:52:28.528Z,10.99
2022-11-18T01:53:28.019Z,11
2022-11-18T01:54:28.577Z,11
2022-11-18T01:55:28.582Z,10.96
2022-11-18T01:56:28.635Z,10.99
2022-11-18T01:57:28.354Z,10.99
2022-11-18T01:58:28.620Z,10.94
2022-11-18T01:59:28.677Z,10.94
2022-11-18T02:00:28.402Z,11
2022-11-18T02:01:28.646Z,11.07
2022-11-18T02:02:28.529Z,10.94
2022-11-18T02:03:28.453Z,11.05
2022-11-18T02:04:28.722Z,10.94
2022-11-18T02:05:28.745Z,10.99
2022-11-18T02:06:28.754Z,10.99
2022-11-18T02:07:28.743Z,11
2022-11-18T02:08:28.527Z,10.94
2022-11-18T02:09:28.819Z,11.04
2022-11-18T02:10:28.817Z,11
2022-11-18T02:11:28.611Z,11.05
2022-11-18T02:12:29.154Z,11.07
2022-11-18T02:13:28.609Z,11.04
2022-11-18T02:14:28.893Z,10.94
2022-11-18T02:15:28.926Z,11.04
2022-11-18T02:16:28.659Z,10.97
2022-11-18T02:17:28.946Z,10.97
2022-11-18T02:18:28.690Z,10.99
2022-11-18T02:19:28.716Z,10.99
2022-11-18T02:20:28.728Z,10.97
2022-11-18T02:21:28.751Z,10.99
2022-11-18T02:22:28.765Z,10.97
2022-11-18T02:23:29.041Z,10.97
2022-11-18T02:24:29.058Z,11.05
2022-11-18T02:25:29.072Z,10.94
2022-11-18T02:26:28.830Z,10.97
2022-11-18T02:27:28.850Z,11.04
2022-11-18T02:28:29.170Z,10.99
2022-11-18T02:29:29.134Z,11.04
2022-11-18T02:30:29.178Z,10.94
2022-11-18T02:31:29.191Z,10.99
2022-11-18T02:32:29.192Z,11.04
2022-11-18T02:33:29.203Z,10.97
2022-11-18T02:34:28.958Z,11.07
2022-11-18T02:35:29.243Z,11.02
2022-11-18T02:36:29.253Z,11.05
2022-11-18T02:37:29.017Z,10.96
2022-11-18T02:38:29.295Z,11.02
2022-11-18T02:39:29.302Z,11
2022-11-18T02:40:29.343Z,10.99
2022-11-18T02:41:28.815Z,11.02
2022-11-18T02:42:29.360Z,11.02
2022-11-18T02:43:29.368Z,10.94
2022-11-18T02:44:29.912Z,11.02
2022-11-18T02:45:29.420Z,10.97
2022-11-18T02:46:29.416Z,10.99
2022-11-18T02:47:29.473Z,10.97
2022-11-18T02:48:29.457Z,11
2022-11-18T02:49:29.217Z,10.92
2022-11-18T02:50:29.227Z,10.97
2022-11-18T02:51:29.506Z,10.97
2022-11-18T02:52:29.257Z,10.97
2022-11-18T02:53:29.275Z,10.97
2022-11-18T02:54:29.551Z,11
2022-11-18T02:55:29.310Z,11.02
2022-11-18T02:56:29.337Z,11
2022-11-18T02:57:29.076Z,10.97
2022-11-18T02:58:29.372Z,11.04
2022-11-18T02:59:29.375Z,11
2022-11-18T03:00:29.439Z,10.94
2022-11-18T03:01:30.151Z,11
2022-11-18T03:02:29.482Z,11.02
2022-11-18T03:03:29.782Z,10.94
2022-11-18T03:04:29.199Z,10.96
2022-11-18T03:05:29.727Z,10.93
2022-11-18T03:06:29.494Z,11
2022-11-18T03:07:29.911Z,10.97
2022-11-18T03:08:29.522Z,11.04
2022-11-18T03:09:29.552Z,10.94
2022-11-18T03:10:29.813Z,10.97
2022-11-18T03:11:29.580Z,11.05
2022-11-18T03:12:29.848Z,10.99
2022-11-18T03:13:29.874Z,10.99
2022-11-18T03:14:29.620Z,11.02
2022-11-18T03:15:29.639Z,10.96
2022-11-18T03:16:29.966Z,10.94
2022-11-18T03:17:29.939Z,10.96
2022-11-18T03:18:29.956Z,10.99
2022-11-18T03:19:29.731Z,11.05
2022-11-18T03:20:29.992Z,10.93
2022-11-18T03:21:30.000Z,10.92
2022-11-18T03:22:30.013Z,10.96
2022-11-18T03:23:29.767Z,10.9
2022-11-18T03:24:30.047Z,10.94
2022-11-18T03:25:30.067Z,10.94
2022-11-18T03:26:30.087Z,10.94
2022-11-18T03:27:30.083Z,10.94
2022-11-18T03:28:29.854Z,10.92
2022-11-18T03:29:29.866Z,10.93
2022-11-18T03:30:30.151Z,10.97
2022-11-18T03:31:29.640Z,10.97
2022-11-18T03:32:30.054Z,10.96
2022-11-18T03:33:29.935Z,10.97
2022-11-18T03:34:29.961Z,10.96
2022-11-18T03:35:30.252Z,10.97
2022-11-18T03:36:29.984Z,10.93
2022-11-18T03:37:30.006Z,10.92
2022-11-18T03:38:30.023Z,10.97
2022-11-18T03:39:30.302Z,11
2022-11-18T03:40:30.039Z,10.94
2022-11-18T03:41:30.064Z,10.94
2022-11-18T03:42:30.347Z,10.96
2022-11-18T03:43:30.385Z,10.93
2022-11-18T03:44:30.375Z,10.94
2022-11-18T03:45:30.139Z,10.81
2022-11-18T03:46:30.431Z,10.9
2022-11-18T03:47:30.740Z,10.94
2022-11-18T03:48:30.498Z,10.81
2022-11-18T03:49:30.452Z,10.89
2022-11-18T03:50:30.475Z,10.94
2022-11-18T03:51:30.521Z,10.89
2022-11-18T03:52:30.520Z,10.79
2022-11-18T03:53:30.530Z,10.84
2022-11-18T03:54:30.279Z,10.89
2022-11-18T03:55:30.557Z,10.81
2022-11-18T03:56:30.575Z,10.79
2022-11-18T03:57:30.329Z,10.76
2022-11-18T03:58:30.346Z,10.9
2022-11-18T03:59:30.639Z,10.81
2022-11-18T04:00:30.649Z,10.79
2022-11-18T04:01:30.666Z,10.76
2022-11-18T04:02:31.067Z,10.78
2022-11-18T04:03:30.690Z,10.82
2022-11-18T04:04:30.486Z,10.9
2022-11-18T04:05:30.722Z,10.89
2022-11-18T04:06:30.743Z,10.87
2022-11-18T04:07:31.194Z,10.92
2022-11-18T04:08:30.770Z,10.81
2022-11-18T04:09:30.531Z,10.93
2022-11-18T04:10:30.813Z,10.92
2022-11-18T04:11:30.563Z,10.79
2022-11-18T04:12:30.573Z,10.79
2022-11-18T04:13:30.855Z,10.81
2022-11-18T04:14:30.866Z,10.81
2022-11-18T04:15:30.619Z,10.89
2022-11-18T04:16:30.741Z,10.86
2022-11-18T04:17:30.934Z,10.81
2022-11-18T04:18:30.675Z,10.89
2022-11-18T04:19:30.692Z,10.75
2022-11-18T04:20:31.033Z,10.81
2022-11-18T04:21:30.986Z,10.76
2022-11-18T04:22:30.743Z,10.79
2022-11-18T04:23:31.138Z,10.82
2022-11-18T04:24:31.033Z,10.81
2022-11-18T04:25:31.072Z,10.94
2022-11-18T04:26:30.800Z,10.84
2022-11-18T04:27:31.091Z,10.9
2022-11-18T04:28:31.093Z,10.9
2022-11-18T04:29:30.849Z,10.81
2022-11-18T04:30:30.865Z,10.76
2022-11-18T04:31:30.621Z,10.89
2022-11-18T04:32:31.161Z,10.76
2022-11-18T04:33:30.909Z,10.92
2022-11-18T04:34:31.235Z,10.87
2022-11-18T04:35:30.951Z,10.82
2022-11-18T04:36:31.275Z,10.86
2022-11-18T04:37:31.249Z,10.81
2022-11-18T04:38:31.266Z,10.84
2022-11-18T04:39:31.299Z,10.86
2022-11-18T04:40:31.300Z,10.81
2022-11-18T04:41:31.313Z,10.75
2022-11-18T04:42:31.332Z,10.92
2022-11-18T04:43:31.337Z,10.86
2022-11-18T04:44:31.098Z,10.92
2022-11-18T04:45:30.865Z,10.79
2022-11-18T04:46:31.397Z,10.94
2022-11-18T04:47:31.150Z,10.78
2022-11-18T04:48:31.422Z,10.82
2022-11-18T04:49:31.179Z,10.78
2022-11-18T04:50:31.468Z,10.93
2022-11-18T04:51:31.472Z,10.86
2022-11-18T04:52:31.325Z,10.93
2022-11-18T04:53:31.499Z,10.84
2022-11-18T04:54:31.273Z,10.82
2022-11-18T04:55:31.574Z,10.92
2022-11-18T04:56:31.602Z,10.86
2022-11-18T04:57:31.052Z,10.89
2022-11-18T04:58:31.607Z,10.96
2022-11-18T04:59:31.609Z,10.82
2022-11-18T05:00:31.634Z,10.86
2022-11-18T05:01:31.461Z,10.81
2022-11-18T05:02:31.446Z,10.82
2022-11-18T05:03:31.818Z,10.86
2022-11-18T05:04:31.432Z,10.87
2022-11-18T05:05:31.791Z,10.89
2022-11-18T05:06:31.819Z,10.84
2022-11-18T05:07:32.098Z,10.86
2022-11-18T05:08:31.854Z,10.9
2022-11-18T05:09:36.609Z,10.9
2022-11-18T05:10:31.840Z,10.76
2022-11-18T05:11:31.826Z,10.93
2022-11-18T05:12:31.819Z,10.76
2022-11-18T05:13:31.582Z,10.76
2022-11-18T05:14:31.624Z,10.96
2022-11-18T05:15:31.867Z,10.82
2022-11-18T05:16:31.622Z,10.78
2022-11-18T05:17:31.379Z,10.89
2022-11-18T05:18:31.669Z,10.9
2022-11-18T05:19:31.882Z,10.81
2022-11-18T05:20:31.939Z,10.78
2022-11-18T05:21:31.450Z,10.86
2022-11-18T05:22:31.463Z,10.79
2022-11-18T05:23:31.842Z,10.79
2022-11-18T05:24:31.945Z,10.87
2022-11-18T05:25:31.510Z,10.78
2022-11-18T05:26:31.525Z,10.89
2022-11-18T05:27:31.833Z,10.84
2022-11-18T05:28:31.871Z,10.89
2022-11-18T05:29:31.887Z,10.81
2022-11-18T05:30:31.878Z,10.81
2022-11-18T05:31:32.134Z,10.81
2022-11-18T05:32:32.149Z,10.86
2022-11-18T05:33:31.910Z,10.81
2022-11-18T05:34:31.913Z,10.92
2022-11-18T05:35:31.935Z,10.92
2022-11-18T05:36:32.201Z,10.9
2022-11-18T05:37:32.221Z,10.81
2022-11-18T05:38:31.988Z,10.81
2022-11-18T05:39:31.996Z,10.86
2022-11-18T05:40:32.317Z,10.89
2022-11-18T05:41:32.302Z,10.92
2022-11-18T05:42:32.044Z,10.9
2022-11-18T05:43:32.354Z,10.84
2022-11-18T05:44:32.094Z,10.87
2022-11-18T05:45:32.348Z,10.81
2022-11-18T05:46:32.379Z,10.9
2022-11-18T05:47:32.387Z,10.84
2022-11-18T05:48:32.405Z,10.84
2022-11-18T05:49:32.164Z,10.87
2022-11-18T05:50:32.192Z,10.89
2022-11-18T05:51:32.194Z,10.94
2022-11-18T05:52:32.476Z,10.81
2022-11-18T05:53:32.493Z,10.82
2022-11-18T05:54:32.241Z,10.84
2022-11-18T05:55:32.543Z,10.81
2022-11-18T05:56:32.582Z,10.9
2022-11-18T05:57:32.592Z,10.92
2022-11-18T05:58:32.310Z,10.78
2022-11-18T05:59:32.619Z,10.92
2022-11-18T06:00:32.355Z,10.82
2022-11-18T06:01:32.637Z,10.86
2022-11-18T06:02:33.985Z,10.9
2022-11-18T06:03:35.676Z,10.92
2022-11-18T06:04:32.664Z,10.76
2022-11-18T06:05:32.687Z,10.9
2022-11-18T06:06:32.452Z,10.92
2022-11-18T06:07:33.028Z,10.82
2022-11-18T06:08:32.725Z,10.89
2022-11-18T06:09:32.484Z,10.82
2022-11-18T06:10:32.508Z,10.84
2022-11-18T06:11:32.812Z,10.87
2022-11-18T06:12:32.594Z,10.81
2022-11-18T06:13:32.561Z,10.82
2022-11-18T06:14:32.852Z,10.81
2022-11-18T06:15:32.883Z,10.82
2022-11-18T06:16:36.572Z,10.86
2022-11-18T06:17:32.364Z,10.78
2022-11-18T06:18:32.637Z,10.92
2022-11-18T06:19:32.663Z,10.87
2022-11-18T06:20:32.937Z,10.89
2022-11-18T06:21:32.943Z,10.84
2022-11-18T06:22:32.699Z,10.81
2022-11-18T06:23:32.715Z,10.87
2022-11-18T06:24:32.743Z,10.79
2022-11-18T06:25:32.756Z,10.78
2022-11-18T06:26:33.021Z,10.78
2022-11-18T06:27:32.779Z,10.9
2022-11-18T06:28:33.101Z,10.94
2022-11-18T06:29:33.708Z,10.87
2022-11-18T06:30:33.090Z,10.78
2022-11-18T06:31:33.136Z,10.81
2022-11-18T06:32:32.869Z,10.82
2022-11-18T06:33:33.150Z,10.81
2022-11-18T06:34:36.818Z,10.81
2022-11-18T06:35:33.179Z,10.84
2022-11-18T06:36:33.194Z,10.82
2022-11-18T06:37:33.198Z,10.82
2022-11-18T06:38:33.225Z,10.89
2022-11-18T06:39:33.241Z,10.82
2022-11-18T06:40:39.329Z,10.84
2022-11-18T06:41:33.269Z,10.82
2022-11-18T06:42:33.293Z,10.79
2022-11-18T06:43:33.043Z,10.82
2022-11-18T06:44:33.451Z,10.82
2022-11-18T06:45:33.508Z,10.82
2022-11-18T06:46:33.092Z,10.81
2022-11-18T06:47:33.136Z,10.76
2022-11-18T06:48:33.386Z,10.86
2022-11-18T06:49:33.407Z,10.81
2022-11-18T06:50:33.439Z,10.81
2022-11-18T06:51:33.448Z,10.82
2022-11-18T06:52:33.189Z,10.86
2022-11-18T06:53:33.205Z,10.82
2022-11-18T06:54:32.964Z,10.81
2022-11-18T06:55:33.242Z,10.93
2022-11-18T06:56:33.533Z,10.86
2022-11-18T06:57:33.268Z,10.79
2022-11-18T06:58:33.278Z,10.86
2022-11-18T06:59:33.564Z,10.9
2022-11-18T07:00:33.966Z,10.82
2022-11-18T07:01:33.924Z,10.82
2022-11-18T07:02:33.669Z,10.89
2022-11-18T07:03:33.397Z,10.86
2022-11-18T07:04:33.656Z,10.92
2022-11-18T07:05:33.664Z,10.86
2022-11-18T07:06:33.678Z,10.9
2022-11-18T07:07:37.580Z,10.82
2022-11-18T07:08:33.449Z,10.84
2022-11-18T07:09:34.005Z,10.9
2022-11-18T07:10:33.744Z,10.93
2022-11-18T07:11:33.521Z,10.86
2022-11-18T07:12:33.781Z,10.86
2022-11-18T07:13:33.537Z,10.84
2022-11-18T07:14:33.566Z,10.86
2022-11-18T07:15:33.827Z,10.87
2022-11-18T07:16:33.901Z,10.86
2022-11-18T07:17:33.594Z,10.92
2022-11-18T07:18:33.631Z,10.89
2022-11-18T07:19:40.435Z,10.81
2022-11-18T07:20:33.675Z,10.81
2022-11-18T07:21:33.975Z,10.76
2022-11-18T07:22:33.708Z,10.82
2022-11-18T07:23:34.009Z,10.89
2022-11-18T07:24:33.749Z,10.86
2022-11-18T07:25:33.998Z,10.87
2022-11-18T07:26:33.759Z,10.87
2022-11-18T07:27:33.786Z,10.81
2022-11-18T07:28:34.045Z,10.84
2022-11-18T07:29:33.799Z,10.82
2022-11-18T07:30:33.567Z,10.78
2022-11-18T07:31:34.097Z,10.84
2022-11-18T07:32:34.203Z,10.89
2022-11-18T07:33:33.861Z,10.86
2022-11-18T07:34:34.136Z,10.78
2022-11-18T07:35:33.919Z,10.86
2022-11-18T07:36:39.804Z,10.82
2022-11-18T07:37:33.935Z,10.97
2022-11-18T07:38:33.952Z,10.86
2022-11-18T07:39:33.957Z,10.86
2022-11-18T07:40:34.234Z,10.81
2022-11-18T07:41:34.249Z,10.84
2022-11-18T07:42:34.011Z,10.9
2022-11-18T07:43:34.021Z,10.76
2022-11-18T07:44:34.045Z,10.86
2022-11-18T07:45:34.311Z,10.87
2022-11-18T07:46:34.077Z,10.9
2022-11-18T07:47:33.823Z,10.86
2022-11-18T07:48:34.420Z,10.86
2022-11-18T07:49:34.379Z,10.78
2022-11-18T07:50:33.883Z,10.92
2022-11-18T07:51:34.430Z,10.89
2022-11-18T07:52:34.166Z,10.9
2022-11-18T07:53:34.441Z,10.92
2022-11-18T07:54:34.462Z,10.74
2022-11-18T07:55:37.191Z,10.87
2022-11-18T07:56:34.509Z,10.92
2022-11-18T07:57:34.244Z,10.93
2022-11-18T07:58:34.268Z,10.79
2022-11-18T07:59:34.555Z,10.97
2022-11-18T08:00:34.555Z,10.87
2022-11-18T08:01:34.892Z,10.79
2022-11-18T08:02:34.935Z,10.96
2022-11-18T08:03:34.614Z,10.89
2022-11-18T08:04:34.903Z,10.82
2022-11-18T08:05:34.629Z,10.81
2022-11-18T08:06:34.537Z,10.82
2022-11-18T08:07:34.763Z,10.89
2022-11-18T08:08:34.839Z,10.87
2022-11-18T08:09:34.803Z,10.89
2022-11-18T08:10:34.500Z,10.78
2022-11-18T08:11:34.789Z,10.89
2022-11-18T08:12:34.799Z,10.9
2022-11-18T08:13:34.822Z,10.99
2022-11-18T08:14:34.836Z,10.84
2022-11-18T08:15:34.544Z,10.93
2022-11-18T08:16:34.829Z,10.94
2022-11-18T08:17:34.834Z,10.94
2022-11-18T08:18:34.860Z,10.76
2022-11-18T08:19:34.871Z,10.93
2022-11-18T08:20:34.934Z,10.94
2022-11-18T08:21:34.899Z,10.97
2022-11-18T08:22:34.915Z,10.96
2022-11-18T08:23:44.373Z,10.93
2022-11-18T08:24:34.822Z,10.97
2022-11-18T08:25:34.968Z,10.97
2022-11-18T08:26:34.726Z,10.94
2022-11-18T08:27:34.733Z,10.93
2022-11-18T08:28:35.296Z,10.89
2022-11-18T08:29:35.157Z,10.94
2022-11-18T08:30:34.834Z,10.99
2022-11-18T08:31:35.062Z,10.99
2022-11-18T08:32:35.084Z,10.92
2022-11-18T08:33:34.844Z,11.02
2022-11-18T08:34:35.114Z,10.94
2022-11-18T08:35:35.120Z,10.94
2022-11-18T08:36:35.374Z,10.94
2022-11-18T08:37:34.906Z,11
2022-11-18T08:38:35.169Z,10.94
2022-11-18T08:39:35.223Z,11.04
2022-11-18T08:40:34.681Z,11.02
2022-11-18T08:41:35.227Z,10.96
2022-11-18T08:42:39.001Z,10.94
2022-11-18T08:43:35.262Z,11.07
2022-11-18T08:44:35.021Z,10.99
2022-11-18T08:45:35.407Z,10.99
2022-11-18T08:46:35.317Z,10.99
2022-11-18T08:47:35.072Z,11.04
2022-11-18T08:48:34.815Z,10.99
2022-11-18T08:49:37.211Z,11.04
2022-11-18T08:50:35.108Z,11.02
2022-11-18T08:51:35.375Z,10.99
2022-11-18T08:52:35.455Z,11.02
2022-11-18T08:53:35.438Z,11
2022-11-18T08:54:35.177Z,11.07
2022-11-18T08:55:35.223Z,10.97
2022-11-18T08:56:35.469Z,11.02
2022-11-18T08:57:35.485Z,11
2022-11-18T08:58:35.248Z,11.1
2022-11-18T08:59:35.272Z,11.15
2022-11-18T09:00:35.284Z,11.12
2022-11-18T09:01:35.632Z,11.14
2022-11-18T09:02:35.323Z,11.17
2022-11-18T09:03:36.992Z,11.11
2022-11-18T09:04:35.634Z,11.08
2022-11-18T09:05:35.639Z,11.17
2022-11-18T09:06:35.382Z,11.17
2022-11-18T09:07:35.912Z,11.14
2022-11-18T09:08:35.730Z,11.22
2022-11-18T09:09:35.712Z,11.17
2022-11-18T09:10:35.444Z,11.17
2022-11-18T09:11:35.746Z,11.19
2022-11-18T09:12:35.756Z,11.27
2022-11-18T09:15:12.726Z,11.22
2022-11-18T09:15:25.061Z,11.22
2022-11-18T09:16:30.987Z,11.22
2022-11-18T09:17:24.634Z,11.26
2022-11-18T09:18:24.389Z,11.27
2022-11-18T09:19:54.401Z,11.19
2022-11-18T09:20:25.003Z,11.26
2022-11-18T09:21:24.698Z,11.23
2022-11-18T09:22:24.727Z,11.25
2022-11-18T09:23:24.478Z,11.29
2022-11-18T09:24:25.132Z,11.27
2022-11-18T09:25:24.805Z,11.35
2022-11-18T09:26:24.781Z,11.27
2022-11-18T09:27:24.565Z,11.27
2022-11-18T09:28:24.561Z,11.33
2022-11-18T09:29:24.585Z,11.36
2022-11-18T09:30:24.689Z,11.35
2022-11-18T09:31:24.601Z,11.35
2022-11-18T09:32:24.874Z,11.3
2022-11-18T09:33:25.667Z,11.32
2022-11-18T09:34:25.146Z,11.33
2022-11-18T09:35:24.967Z,11.35
2022-11-18T09:36:24.685Z,11.35
2022-11-18T09:37:24.978Z,11.36
2022-11-18T09:38:24.730Z,11.33
2022-11-18T09:39:25.073Z,11.25
2022-11-18T09:40:24.894Z,11.41
2022-11-18T09:41:24.780Z,11.41
2022-11-18T09:42:24.810Z,11.35
2022-11-18T09:43:25.091Z,11.43
2022-11-18T09:44:24.812Z,11.37
2022-11-18T09:45:29.405Z,11.43
2022-11-18T09:46:25.124Z,11.37
2022-11-18T09:47:24.881Z,11.43
2022-11-18T09:48:25.254Z,11.48
2022-11-18T09:49:25.276Z,11.36
2022-11-18T09:50:53.276Z,11.43
2022-11-18T09:51:24.940Z,11.44
2022-11-18T09:52:25.218Z,11.41
2022-11-18T09:53:25.244Z,11.36
2022-11-18T09:54:25.564Z,11.41
2022-11-18T09:55:25.282Z,11.48
2022-11-18T09:56:25.690Z,11.37
2022-11-18T09:57:25.050Z,11.41
2022-11-18T09:58:25.050Z,11.4
2022-11-18T09:59:25.352Z,11.41
2022-11-18T10:00:25.435Z,11.41
2022-11-18T10:01:27.753Z,11.48
2022-11-18T10:02:25.183Z,11.43
2022-11-18T10:03:25.137Z,11.37
2022-11-18T10:04:24.905Z,11.43
2022-11-18T10:05:25.587Z,11.44
2022-11-18T10:06:28.557Z,11.44
2022-11-18T10:07:25.759Z,11.5
2022-11-18T10:08:24.987Z,11.47
2022-11-18T10:09:25.407Z,11.48
2022-11-18T10:10:25.059Z,11.5
2022-11-18T10:11:25.521Z,11.54
2022-11-18T10:12:25.597Z,11.54
2022-11-18T10:13:25.305Z,11.48
2022-11-18T10:14:25.478Z,11.52
2022-11-18T10:15:25.709Z,11.51
2022-11-18T10:16:25.714Z,11.51
2022-11-18T10:17:25.374Z,11.54
2022-11-18T10:19:05.203Z,11.55
2022-11-18T10:19:25.676Z,11.62
2022-11-18T10:20:25.682Z,11.54
2022-11-18T10:21:25.446Z,11.63
2022-11-18T10:22:29.231Z,11.5
2022-11-18T10:23:25.732Z,11.52
2022-11-18T10:24:25.848Z,11.59
2022-11-18T10:25:25.762Z,11.52
2022-11-18T10:26:25.529Z,11.59
2022-11-18T10:27:25.826Z,11.52
2022-11-18T10:28:25.882Z,11.52
2022-11-18T10:29:25.835Z,11.55
2022-11-18T10:30:25.610Z,11.57
2022-11-18T10:31:25.906Z,11.62
2022-11-18T10:32:25.641Z,11.55
2022-11-18T10:33:25.726Z,11.62
2022-11-18T10:34:25.667Z,11.55
2022-11-18T10:35:25.942Z,11.57
2022-11-18T10:36:25.955Z,11.57
2022-11-18T10:38:06.581Z,11.62
2022-11-18T10:38:26.018Z,11.57
2022-11-18T10:39:25.863Z,11.62
2022-11-18T10:40:25.757Z,11.63
2022-11-18T10:41:25.535Z,11.57
2022-11-18T10:42:25.793Z,11.55
2022-11-18T10:43:25.896Z,11.54
2022-11-18T10:44:26.240Z,11.55
2022-11-18T10:45:25.849Z,11.57
2022-11-18T10:46:25.866Z,11.6
2022-11-18T10:47:26.231Z,11.55
2022-11-18T10:48:26.279Z,11.57
2022-11-18T10:49:25.914Z,11.51
2022-11-18T10:50:26.193Z,11.5
2022-11-18T10:51:26.210Z,11.5
2022-11-18T10:52:25.987Z,11.51
2022-11-18T10:53:26.247Z,11.62
2022-11-18T10:54:26.261Z,11.6
2022-11-18T10:55:26.036Z,11.54
2022-11-18T10:56:26.411Z,11.54
2022-11-18T10:57:26.059Z,11.54
2022-11-18T10:58:26.551Z,11.62
2022-11-18T10:59:26.078Z,11.6
2022-11-18T11:00:26.172Z,11.68
2022-11-18T11:01:26.724Z,11.65
2022-11-18T11:02:26.588Z,11.69
2022-11-18T11:03:26.449Z,11.65
2022-11-18T11:04:26.173Z,11.7
2022-11-18T11:05:26.448Z,11.68
2022-11-18T11:06:26.498Z,11.81
2022-11-18T11:07:26.777Z,11.63
2022-11-18T11:08:41.801Z,11.69
2022-11-18T11:09:25.990Z,11.81
2022-11-18T11:10:26.009Z,11.75
2022-11-18T11:11:26.552Z,11.7
2022-11-18T11:12:26.066Z,11.73
2022-11-18T11:13:26.324Z,11.75
2022-11-18T11:14:27.152Z,11.77
2022-11-18T11:15:26.379Z,11.7
2022-11-18T11:16:31.249Z,11.72
2022-11-18T11:17:26.681Z,11.72
2022-11-18T11:18:26.666Z,11.73
2022-11-18T11:19:26.711Z,11.72
2022-11-18T11:20:26.434Z,11.72
2022-11-18T11:21:26.712Z,11.75
2022-11-18T11:22:26.473Z,11.72
2022-11-18T11:23:28.776Z,11.72
2022-11-18T11:24:26.507Z,11.81
2022-11-18T11:25:28.226Z,11.73
2022-11-18T11:28:19.613Z,11.83
2022-11-18T11:29:19.397Z,11.87
2022-11-18T11:30:18.395Z,11.8
2022-11-18T11:31:18.816Z,11.77
2022-11-18T11:32:18.878Z,11.77
2022-11-18T11:33:18.592Z,11.77
2022-11-18T11:34:18.602Z,11.77
2022-11-18T11:35:18.656Z,11.88
2022-11-18T11:36:18.646Z,11.9
2022-11-18T11:37:18.922Z,11.84
2022-11-18T11:38:18.935Z,11.84
2022-11-18T11:39:19.196Z,11.75
2022-11-18T11:40:18.717Z,11.77
2022-11-18T11:41:18.987Z,11.8
2022-11-18T11:42:19.001Z,11.78
2022-11-18T11:43:18.772Z,11.78
2022-11-18T11:44:19.030Z,11.78
2022-11-18T11:45:18.825Z,11.8
2022-11-18T11:46:18.551Z,11.78
2022-11-18T11:47:19.079Z,11.8
2022-11-18T11:48:19.193Z,11.77
2022-11-18T11:49:19.875Z,11.78
2022-11-18T11:50:19.014Z,11.78
2022-11-18T11:51:19.198Z,11.81
2022-11-18T11:52:19.175Z,11.77
2022-11-18T11:53:19.195Z,11.84
2022-11-18T11:54:19.293Z,11.84
2022-11-18T11:55:19.230Z,11.68
2022-11-18T11:56:25.546Z,11.69
2022-11-18T11:57:19.019Z,11.75
2022-11-18T11:58:19.268Z,11.83
2022-11-18T11:59:20.180Z,11.7
2022-11-18T12:00:18.870Z,11.65
2022-11-18T12:01:19.073Z,11.69
2022-11-18T12:02:19.144Z,11.68
2022-11-18T12:03:19.323Z,11.59
2022-11-18T12:04:19.177Z,11.69
2022-11-18T12:05:18.871Z,11.7
2022-11-18T12:06:19.403Z,11.57
2022-11-18T12:07:19.845Z,11.66
2022-11-18T12:08:19.102Z,11.6
2022-11-18T12:09:20.081Z,11.57
2022-11-18T12:10:19.217Z,11.6
2022-11-18T12:11:19.512Z,11.54
2022-11-18T12:12:19.512Z,11.59
2022-11-18T12:13:19.266Z,11.57
2022-11-18T12:14:19.532Z,11.62
2022-11-18T12:15:19.332Z,11.52
2022-11-18T12:16:19.574Z,11.54
2022-11-18T12:17:19.597Z,11.57
2022-11-18T12:18:19.353Z,11.54
2022-11-18T12:19:20.088Z,11.66
2022-11-18T12:20:19.691Z,11.59
2022-11-18T12:21:19.149Z,11.57
2022-11-18T12:22:19.430Z,11.52
2022-11-18T12:23:19.462Z,11.55
2022-11-18T12:24:19.449Z,11.52
2022-11-18T12:25:19.720Z,11.52
2022-11-18T12:26:19.747Z,11.62
2022-11-18T12:27:19.803Z,11.54
2022-11-18T12:28:19.255Z,11.52
2022-11-18T12:29:21.144Z,11.63
2022-11-18T12:30:19.550Z,11.52
2022-11-18T12:31:19.570Z,11.59
2022-11-18T12:32:19.848Z,11.55
2022-11-18T12:33:19.342Z,11.54
2022-11-18T12:34:19.876Z,11.55
2022-11-18T12:35:19.900Z,11.52
2022-11-18T12:36:19.805Z,11.51
2022-11-18T12:37:19.671Z,11.57
2022-11-18T12:38:19.678Z,11.62
2022-11-18T12:39:20.523Z,11.55
2022-11-18T12:40:19.973Z,11.6
2022-11-18T12:41:19.730Z,11.62
2022-11-18T12:42:20.004Z,11.57
2022-11-18T12:43:20.041Z,11.59
2022-11-18T12:44:20.064Z,11.51
2022-11-18T12:45:20.064Z,11.62
2022-11-18T12:46:19.816Z,11.63
2022-11-18T12:47:20.095Z,11.59
2022-11-18T12:48:24.260Z,11.65
2022-11-18T12:49:20.707Z,11.62
2022-11-18T12:50:19.900Z,11.55
2022-11-18T12:51:19.909Z,11.55
2022-11-18T12:52:20.295Z,11.62
2022-11-18T12:53:19.927Z,11.6
2022-11-18T12:54:19.954Z,11.63
2022-11-18T12:55:20.288Z,11.6
2022-11-18T12:56:20.245Z,11.57
2022-11-18T12:57:19.997Z,11.57
2022-11-18T12:58:20.570Z,11.69
2022-11-18T12:59:20.704Z,11.59
2022-11-18T13:00:20.063Z,11.6